To NAV CANADA Home Page Login to a new session Search on AWWS site Feedback and Comments Disclaimer Vers la page française équivalente Tips FAQ What's new on the site To the Forecasts and Observations / NOTAM section To "File a Flight Plan" website Publications and other links Update of the User's profile FIC Telephone Numbers My Weather Data Folder Route Weather Data Regional Weather Data Local Weather Data To the Forecasts and Observations / NOTAM section
Request Generated 09/30/2016 at 15:08:35 UTC . Weather information available at that time is displayed.

METAR/TAF

RED DEER REGIONAL/AB    

METAR CYQF 301500Z 03003KT 12SM OVC037 09/08 A3001 RMK SC8 SLP180=
METAR CYQF 301400Z 01003KT 15SM OVC034 09/07 A3000 RMK SC8 SLP180=
METAR CYQF 301300Z 02002KT 15SM OVC027 08/07 A3002 RMK SC8 SLP183=

TAF CYQF 301138Z 3012/3024 VRB03KT P6SM SCT030 TEMPO 3012/3016 BKN020
PROB30 3012/3015 1SM BR
FM301600 22006KT P6SM BKN020 TEMPO 3016/3024 BKN025
BECMG 3020/3022 01008KT
RMK NXT FCST BY 301800Z=
Your time UTC time
Weather data provided by Environment Canada and NAV CANADA